This London Heathrow Airport weather forecast is generated by the Met Office Weather Widget

AirNav RadarBox - Metar Weather
  London Heathrow Metar Weather
 

METAR = EGLL 192220Z 04004KT CAVOK 08/03 Q1025

STATION........ EGLL
OBSERVED....... Sun Apr 19, 23:20 BST
NOW............ Sun Apr 19, 23:51 BST
AGE............ 31 min ago
WIND........... NE at 5 mph
VISIBILITY..... greater than 7 miles
CLOUDS......... clear skies
TEMP........... 46°F (8°C)
WIND CHILL..... 44°F (7°C)
DEWPT.......... 37°F (3°C)
HUMIDITY....... 71%
BAROMETER...... 1025 hPa (30.27 in Hg)

Sun Apr 19 2015, sunrise time : 05:00
Sun Apr 19 2015, sunset time : 19:00